Time;durP1;ratioP1;P1;durP2;ratioP2;P2;SDS_P1;SDS_P2;PMS_P1;PMS_P2;Temp;Humidity;BMP_temperature;BMP_pressure;BME280_temperature;BME280_humidity;BME280_pressure;Samples;Min_cycle;Max_cycle;Signal;HPM_P1;HPM_P2
2021/06/12 00:00:43;;;;;;;1.50;1.40;;;18.30;99.90;;;;;;5070684;28;20032;-77
2021/06/12 00:03:09;;;;;;;3.35;3.15;;;18.20;99.90;;;;;;5069323;28;20527;-77
2021/06/12 00:05:35;;;;;;;2.30;2.08;;;18.20;99.90;;;;;;5070881;28;20141;-80
2021/06/12 00:08:01;;;;;;;1.40;1.30;;;18.20;99.90;;;;;;5070171;28;20119;-80
2021/06/12 00:10:31;;;;;;;1.45;1.35;;;18.10;99.90;;;;;;5069298;28;20036;-81
2021/06/12 00:12:57;;;;;;;2.50;2.33;;;18.20;99.90;;;;;;5070433;28;20027;-80
2021/06/12 00:15:23;;;;;;;1.90;1.80;;;18.20;99.90;;;;;;5070747;28;20032;-79
2021/06/12 00:17:49;;;;;;;1.40;1.30;;;18.00;99.90;;;;;;5070655;28;20039;-81
2021/06/12 00:20:21;;;;;;;1.70;1.60;;;18.10;99.90;;;;;;5070861;28;20036;-76
2021/06/12 00:22:47;;;;;;;2.95;2.00;;;18.10;99.90;;;;;;5070303;28;20459;-79
2021/06/12 00:25:15;;;;;;;1.50;1.40;;;18.10;99.90;;;;;;5070908;28;20104;-82
2021/06/12 00:27:44;;;;;;;3.55;2.53;;;18.20;99.90;;;;;;5070035;28;20049;-78
2021/06/12 00:30:11;;;;;;;1.33;1.23;;;18.10;99.90;;;;;;5089089;28;20494;-80
2021/06/12 00:32:37;;;;;;;1.60;1.50;;;18.10;99.90;;;;;;5090460;28;20360;-80
2021/06/12 00:35:04;;;;;;;1.40;1.30;;;18.00;99.90;;;;;;5092437;28;20032;-79
2021/06/12 00:37:30;;;;;;;1.65;1.55;;;18.00;99.90;;;;;;5094280;28;20099;-81
2021/06/12 00:39:56;;;;;;;1.50;1.40;;;18.00;99.90;;;;;;5094579;28;20020;-78
2021/06/12 00:42:22;;;;;;;1.90;1.80;;;18.00;99.90;;;;;;5093624;28;20020;-81
2021/06/12 00:44:48;;;;;;;1.50;1.40;;;18.00;99.90;;;;;;5094305;28;20028;-81
2021/06/12 00:47:13;;;;;;;4.38;2.67;;;18.10;99.90;;;;;;5094100;28;20471;-83
2021/06/12 00:49:39;;;;;;;1.50;1.40;;;18.10;99.90;;;;;;5094437;28;20028;-83
2021/06/12 00:52:05;;;;;;;1.50;1.40;;;18.00;99.90;;;;;;5093809;28;20119;-82
2021/06/12 00:54:31;;;;;;;1.70;1.60;;;18.00;99.90;;;;;;5094587;28;20040;-80
2021/06/12 00:56:58;;;;;;;1.50;1.40;;;18.00;99.90;;;;;;5094539;28;20485;-80
2021/06/12 00:59:33;;;;;;;1.50;1.40;;;17.90;99.90;;;;;;5094123;28;20020;-82
2021/06/12 01:01:59;;;;;;;1.45;1.35;;;17.80;99.90;;;;;;5094043;28;20415;-80
2021/06/12 01:04:26;;;;;;;6.38;2.35;;;17.80;99.90;;;;;;5093851;28;20039;-80
2021/06/12 01:06:52;;;;;;;1.48;1.38;;;17.80;99.90;;;;;;5093831;28;20031;-81
2021/06/12 01:09:21;;;;;;;2.80;2.60;;;17.80;99.90;;;;;;5093959;28;20032;-81
2021/06/12 01:12:25;;;;;;;4.70;1.88;;;17.80;99.90;;;;;;5093993;28;20050;-83
2021/06/12 01:14:56;;;;;;;2.30;2.10;;;17.70;99.90;;;;;;5075457;28;20032;-79
2021/06/12 01:17:28;;;;;;;1.63;1.52;;;17.60;99.90;;;;;;5093786;28;20360;-81
2021/06/12 01:20:06;;;;;;;1.50;1.40;;;17.60;99.90;;;;;;5094060;28;20069;-82
2021/06/12 01:22:47;;;;;;;2.08;1.98;;;17.50;99.90;;;;;;5093822;28;20028;-81
2021/06/12 01:25:31;;;;;;;2.03;1.92;;;17.50;99.90;;;;;;5093537;28;20102;-81
2021/06/12 01:28:00;;;;;;;1.50;1.40;;;17.50;99.90;;;;;;5091990;28;20044;-80
2021/06/12 01:30:31;;;;;;;1.55;1.45;;;17.60;99.90;;;;;;5074204;28;20046;-80
2021/06/12 01:33:10;;;;;;;1.98;1.88;;;17.50;99.90;;;;;;5073385;28;20028;-80
2021/06/12 01:35:39;;;;;;;1.48;1.38;;;17.50;99.90;;;;;;5073300;28;20036;-80
2021/06/12 01:38:07;;;;;;;2.50;2.30;;;17.50;99.90;;;;;;5073251;28;20025;-82
2021/06/12 01:40:36;;;;;;;1.50;1.40;;;17.40;99.90;;;;;;5072592;28;20047;-80
2021/06/12 01:43:07;;;;;;;1.73;1.63;;;17.40;99.90;;;;;;5072869;28;20094;-80
2021/06/12 01:45:33;;;;;;;1.70;1.60;;;17.50;99.90;;;;;;5073348;28;20108;-81
2021/06/12 01:48:00;;;;;;;1.77;1.60;;;17.40;99.90;;;;;;5072744;28;20043;-81
2021/06/12 01:50:26;;;;;;;1.65;1.55;;;17.40;99.90;;;;;;5072057;28;20531;-81
2021/06/12 01:52:55;;;;;;;1.60;1.50;;;17.00;99.90;;;;;;5072939;28;20064;-81
2021/06/12 01:55:24;;;;;;;1.60;1.50;;;17.20;99.90;;;;;;5071221;28;20020;-83
2021/06/12 01:57:50;;;;;;;1.50;1.40;;;17.20;99.90;;;;;;5072467;28;20029;-81
2021/06/12 02:00:17;;;;;;;2.33;2.15;;;17.10;99.90;;;;;;5072410;28;20024;-82
2021/06/12 02:02:44;;;;;;;1.50;1.40;;;17.20;99.90;;;;;;5071230;28;20024;-81
2021/06/12 02:05:17;;;;;;;1.60;1.50;;;17.10;99.90;;;;;;5072782;28;20036;-81
2021/06/12 02:07:44;;;;;;;1.90;1.80;;;17.10;99.90;;;;;;5072333;28;20064;-81
2021/06/12 02:10:12;;;;;;;2.13;1.92;;;17.10;99.90;;;;;;5072412;28;20031;-81
2021/06/12 02:12:39;;;;;;;2.25;2.05;;;17.00;99.90;;;;;;5072329;28;20025;-81
2021/06/12 02:15:08;;;;;;;1.60;1.50;;;17.00;99.90;;;;;;5072596;28;20021;-81
2021/06/12 02:17:36;;;;;;;1.70;1.60;;;17.10;99.90;;;;;;5071945;28;20020;-79
2021/06/12 02:20:05;;;;;;;1.60;1.50;;;17.10;99.90;;;;;;5072371;28;20036;-79
2021/06/12 02:22:32;;;;;;;1.63;1.52;;;16.90;99.90;;;;;;5071912;28;20065;-80
2021/06/12 02:24:58;;;;;;;1.42;1.33;;;16.90;99.90;;;;;;5072062;28;20384;-80
2021/06/12 02:27:25;;;;;;;3.08;2.88;;;16.90;99.90;;;;;;5070680;28;20542;-79
2021/06/12 02:29:55;;;;;;;1.50;1.40;;;16.90;99.90;;;;;;5085027;28;20498;-79
2021/06/12 02:32:23;;;;;;;1.85;1.75;;;16.80;99.90;;;;;;5092403;28;20028;-79
2021/06/12 02:34:49;;;;;;;1.60;1.50;;;16.80;99.90;;;;;;5092199;28;20081;-78
2021/06/12 02:37:15;;;;;;;1.75;1.65;;;16.70;99.90;;;;;;5092154;28;20020;-81
2021/06/12 02:39:41;;;;;;;1.55;1.45;;;16.60;99.90;;;;;;5092125;28;20418;-79
2021/06/12 02:42:08;;;;;;;1.65;1.55;;;16.60;99.90;;;;;;5092122;28;20491;-80
2021/06/12 02:44:34;;;;;;;1.50;1.40;;;16.70;99.90;;;;;;5092538;28;20411;-81
2021/06/12 02:47:04;;;;;;;1.63;1.52;;;16.70;99.90;;;;;;5091800;28;20565;-80
2021/06/12 02:49:35;;;;;;;1.70;1.60;;;16.70;99.90;;;;;;5092331;28;20028;-78
2021/06/12 02:52:05;;;;;;;2.45;2.25;;;16.70;99.90;;;;;;5091881;28;20050;-80
2021/06/12 02:54:31;;;;;;;1.65;1.55;;;16.70;99.90;;;;;;5092001;28;20039;-80
2021/06/12 02:56:59;;;;;;;1.70;1.60;;;16.50;99.90;;;;;;5091622;28;20093;-80
2021/06/12 02:59:29;;;;;;;1.80;1.70;;;15.80;99.90;;;;;;5091363;28;20020;-79
2021/06/12 03:01:55;;;;;;;1.95;1.85;;;15.80;99.90;;;;;;5091630;28;20093;-79
2021/06/12 03:04:22;;;;;;;2.38;2.17;;;15.70;99.90;;;;;;5091752;28;20028;-79
2021/06/12 03:06:51;;;;;;;1.80;1.70;;;16.20;99.90;;;;;;5091366;28;20024;-79
2021/06/12 03:09:20;;;;;;;1.73;1.63;;;16.50;99.90;;;;;;5090491;28;20035;-79
2021/06/12 03:11:49;;;;;;;1.70;1.60;;;16.70;99.90;;;;;;5091575;28;20287;-79
2021/06/12 03:14:16;;;;;;;1.70;1.60;;;16.70;99.90;;;;;;5091224;28;20091;-79
2021/06/12 03:16:45;;;;;;;1.83;1.73;;;16.80;99.90;;;;;;5091369;28;20027;-79
2021/06/12 03:19:14;;;;;;;2.05;1.95;;;16.90;99.90;;;;;;5090269;28;20101;-79
2021/06/12 03:21:41;;;;;;;2.33;2.13;;;16.80;99.90;;;;;;5091162;28;20670;-79
2021/06/12 03:24:07;;;;;;;4.10;3.67;;;16.80;99.90;;;;;;5091375;28;20032;-78
2021/06/12 03:26:34;;;;;;;1.75;1.65;;;16.80;99.90;;;;;;5091324;28;20023;-80
2021/06/12 03:29:02;;;;;;;2.42;2.22;;;16.80;99.90;;;;;;5087062;28;20183;-82
2021/06/12 03:31:29;;;;;;;3.00;2.45;;;16.80;99.90;;;;;;5071443;28;20050;-81
2021/06/12 03:33:55;;;;;;;1.92;1.83;;;16.80;99.90;;;;;;5071174;28;20021;-77
2021/06/12 03:36:23;;;;;;;2.45;2.25;;;16.70;99.90;;;;;;5071116;28;20040;-80
2021/06/12 03:38:49;;;;;;;2.05;1.90;;;16.80;99.90;;;;;;5071218;28;20027;-81
2021/06/12 03:41:15;;;;;;;2.05;1.95;;;17.00;99.90;;;;;;5070994;28;20016;-77
2021/06/12 03:43:42;;;;;;;2.38;2.17;;;17.00;99.90;;;;;;5070968;28;20027;-79
2021/06/12 03:46:12;;;;;;;2.65;2.45;;;17.00;99.90;;;;;;5071020;28;20364;-78
2021/06/12 03:48:38;;;;;;;2.22;2.03;;;17.00;99.90;;;;;;5071112;28;20120;-79
2021/06/12 03:51:05;;;;;;;3.78;3.25;;;17.10;99.90;;;;;;5069562;28;20036;-78
2021/06/12 03:53:43;;;;;;;3.15;2.85;;;17.20;99.90;;;;;;5071073;28;20537;-80
2021/06/12 03:56:09;;;;;;;1.60;1.50;;;16.60;99.90;;;;;;5070775;28;20047;-81
2021/06/12 03:58:35;;;;;;;2.05;1.88;;;16.70;99.90;;;;;;5071038;28;20023;-77
2021/06/12 04:01:01;;;;;;;1.83;1.73;;;16.60;99.90;;;;;;5070881;28;20104;-79
2021/06/12 04:03:26;;;;;;;2.85;2.65;;;16.90;99.90;;;;;;5071066;28;20369;-78
2021/06/12 04:05:52;;;;;;;2.22;2.05;;;16.40;99.90;;;;;;5071072;28;20037;-78
2021/06/12 04:08:18;;;;;;;1.80;1.70;;;16.60;99.90;;;;;;5070779;28;20067;-78
2021/06/12 04:10:44;;;;;;;1.88;1.77;;;16.50;99.90;;;;;;5073731;28;20028;-78
2021/06/12 04:13:10;;;;;;;1.90;1.80;;;16.60;99.90;;;;;;5075152;28;20025;-77
2021/06/12 04:15:36;;;;;;;2.15;2.03;;;16.40;99.90;;;;;;5074680;28;20050;-78
2021/06/12 04:18:08;;;;;;;1.60;1.50;;;16.70;99.90;;;;;;5074563;28;20025;-81
2021/06/12 04:20:38;;;;;;;1.60;1.50;;;16.90;99.90;;;;;;5074752;28;20071;-78
2021/06/12 04:23:04;;;;;;;1.65;1.55;;;17.00;99.90;;;;;;5074616;28;20016;-79
2021/06/12 04:25:30;;;;;;;2.40;2.20;;;17.10;99.90;;;;;;5073373;28;20035;-78
2021/06/12 04:27:56;;;;;;;1.73;1.63;;;17.10;99.90;;;;;;5074036;28;20452;-78
2021/06/12 04:30:22;;;;;;;1.65;1.55;;;17.10;99.90;;;;;;5088355;28;20455;-78
2021/06/12 04:32:48;;;;;;;5.15;2.95;;;17.30;99.90;;;;;;5094740;28;20031;-78
2021/06/12 04:35:15;;;;;;;1.50;1.40;;;17.40;99.90;;;;;;5094276;28;20028;-77
2021/06/12 04:37:42;;;;;;;1.77;1.67;;;17.50;99.90;;;;;;5094568;28;20020;-79
2021/06/12 04:40:09;;;;;;;1.50;1.40;;;17.60;99.90;;;;;;5094585;28;20028;-78
2021/06/12 04:42:36;;;;;;;1.50;1.40;;;17.60;99.90;;;;;;5094642;28;20028;-78
2021/06/12 04:45:02;;;;;;;2.10;1.90;;;17.70;99.90;;;;;;5094249;28;20035;-77
2021/06/12 04:47:28;;;;;;;1.40;1.30;;;17.80;99.90;;;;;;5094545;28;20607;-78
2021/06/12 04:49:54;;;;;;;1.73;1.63;;;17.80;99.90;;;;;;5094109;28;20544;-78
2021/06/12 04:52:20;;;;;;;1.60;1.50;;;17.80;99.90;;;;;;5094414;28;20056;-79
2021/06/12 04:54:46;;;;;;;3.03;2.72;;;18.00;99.90;;;;;;5093915;28;20552;-78
2021/06/12 04:57:12;;;;;;;1.60;1.50;;;18.00;99.90;;;;;;5094060;28;20467;-79
2021/06/12 04:59:37;;;;;;;5.22;2.45;;;18.00;99.90;;;;;;5092700;28;20486;-78
2021/06/12 05:02:04;;;;;;;1.77;1.67;;;18.00;99.90;;;;;;5094000;28;20028;-78
2021/06/12 05:04:29;;;;;;;2.67;2.47;;;18.00;99.90;;;;;;5093834;28;20025;-79
2021/06/12 05:06:55;;;;;;;3.05;2.85;;;18.00;99.90;;;;;;5093515;28;20031;-80
2021/06/12 05:09:21;;;;;;;1.30;1.20;;;18.10;99.90;;;;;;5092690;28;20024;-81
2021/06/12 05:11:47;;;;;;;1.80;1.70;;;18.00;99.90;;;;;;5093832;28;20486;-81
2021/06/12 05:14:12;;;;;;;3.70;3.40;;;18.10;99.90;;;;;;5093619;28;20031;-82
2021/06/12 05:16:39;;;;;;;1.92;1.73;;;18.20;99.90;;;;;;5093964;28;20052;-82
2021/06/12 05:19:05;;;;;;;2.10;1.95;;;18.20;99.90;;;;;;5093362;28;20378;-82
2021/06/12 05:21:38;;;;;;;3.10;2.90;;;18.30;99.90;;;;;;5091838;28;20039;-82
2021/06/12 05:24:05;;;;;;;1.40;1.30;;;17.90;99.90;;;;;;5093715;28;20031;-81
2021/06/12 05:26:32;;;;;;;1.40;1.30;;;17.90;99.90;;;;;;5093152;28;20027;-82
2021/06/12 05:28:58;;;;;;;1.33;1.23;;;18.10;99.90;;;;;;5092768;28;20032;-82
2021/06/12 05:31:23;;;;;;;1.48;1.38;;;18.00;99.90;;;;;;5073300;28;20056;-81
2021/06/12 05:33:49;;;;;;;1.85;1.75;;;18.10;99.90;;;;;;5073120;28;20100;-81
2021/06/12 05:36:16;;;;;;;1.50;1.40;;;18.20;99.90;;;;;;5072939;28;20036;-80
2021/06/12 05:38:42;;;;;;;1.92;1.83;;;18.30;99.90;;;;;;5072900;28;20017;-80
2021/06/12 05:41:14;;;;;;;1.40;1.30;;;18.40;99.90;;;;;;5071626;28;20035;-82
2021/06/12 05:43:39;;;;;;;1.58;1.48;;;18.50;99.90;;;;;;5072392;28;20375;-81
2021/06/12 05:46:05;;;;;;;1.50;1.40;;;18.50;99.90;;;;;;5073007;28;20471;-80
2021/06/12 05:48:36;;;;;;;1.40;1.30;;;18.50;99.90;;;;;;5073122;28;20456;-82
2021/06/12 05:55:16;;;;;;;4.10;2.50;;;18.60;99.90;;;;;;5035891;28;20046;-84
2021/06/12 05:57:55;;;;;;;2.03;1.92;;;18.80;99.90;;;;;;5062247;28;20045;-81
2021/06/12 06:00:22;;;;;;;1.48;1.38;;;18.80;99.90;;;;;;5072858;28;20021;-81
2021/06/12 06:02:48;;;;;;;1.30;1.20;;;18.90;99.90;;;;;;5071245;28;20428;-81
2021/06/12 06:05:13;;;;;;;1.35;1.25;;;18.80;99.90;;;;;;5072214;28;20552;-81
2021/06/12 06:07:39;;;;;;;1.17;1.15;;;18.80;99.90;;;;;;5072718;28;20368;-82
2021/06/12 06:10:06;;;;;;;1.30;1.20;;;19.00;99.90;;;;;;5072160;28;20027;-80
2021/06/12 06:12:33;;;;;;;1.60;1.50;;;19.20;99.90;;;;;;5072580;28;20426;-81
2021/06/12 06:14:59;;;;;;;1.90;1.80;;;19.30;99.90;;;;;;5072364;28;20024;-78
2021/06/12 06:17:25;;;;;;;1.67;1.58;;;19.40;99.90;;;;;;5070626;28;20387;-84
2021/06/12 06:19:50;;;;;;;1.65;1.50;;;19.50;99.90;;;;;;5071302;28;20056;-82
2021/06/12 06:22:17;;;;;;;1.40;1.30;;;19.40;99.90;;;;;;5072411;28;20416;-84
2021/06/12 06:24:43;;;;;;;1.73;1.63;;;19.50;99.90;;;;;;5071888;28;20043;-83
2021/06/12 06:27:29;;;;;;;3.10;1.77;;;19.60;99.90;;;;;;5070655;28;20395;-83
2021/06/12 06:29:55;;;;;;;1.25;1.17;;;19.60;99.90;;;;;;5078561;28;20020;-83
2021/06/12 06:32:21;;;;;;;1.17;1.10;;;19.80;99.90;;;;;;5091565;28;20020;-81
2021/06/12 06:34:47;;;;;;;1.08;1.08;;;19.60;99.90;;;;;;5091080;28;20585;-81
2021/06/12 06:37:12;;;;;;;4.00;3.28;;;19.90;99.90;;;;;;5092290;28;20028;-83
2021/06/12 06:39:38;;;;;;;3.17;2.88;;;20.00;99.90;;;;;;5091756;28;20527;-83
2021/06/12 06:42:05;;;;;;;6.82;6.07;;;20.20;99.90;;;;;;5092329;28;20032;-82
2021/06/12 06:44:32;;;;;;;5.10;4.50;;;20.30;99.90;;;;;;5090353;28;20024;-82
2021/06/12 06:46:58;;;;;;;10.30;3.15;;;20.50;99.90;;;;;;5091698;28;20367;-81
2021/06/12 06:49:24;;;;;;;1.92;1.75;;;20.40;99.90;;;;;;5091796;28;20518;-82
2021/06/12 06:51:50;;;;;;;1.13;1.10;;;20.30;99.90;;;;;;5090811;28;20475;-82
2021/06/12 06:54:15;;;;;;;1.00;1.00;;;20.40;99.90;;;;;;5090255;28;20430;-82
2021/06/12 06:56:41;;;;;;;1.00;1.00;;;20.20;99.90;;;;;;5092294;28;20024;-88
2021/06/12 06:59:07;;;;;;;1.63;1.52;;;20.10;99.90;;;;;;5092718;28;20028;-91
2021/06/12 07:01:36;;;;;;;1.75;1.27;;;20.40;99.90;;;;;;5092999;28;20092;-86
2021/06/12 07:04:02;;;;;;;1.38;1.27;;;20.60;99.90;;;;;;5092763;28;20024;-86
2021/06/12 07:06:28;;;;;;;1.75;1.65;;;20.80;99.90;;;;;;5092829;28;20094;-85
2021/06/12 07:08:54;;;;;;;3.05;1.60;;;20.90;99.90;;;;;;5092159;28;20040;-77
2021/06/12 07:11:19;;;;;;;0.95;0.95;;;20.90;99.90;;;;;;5080758;28;20094;-89
2021/06/12 07:13:45;;;;;;;1.17;1.13;;;20.90;99.90;;;;;;5070485;28;20430;-80
2021/06/12 07:16:11;;;;;;;1.10;1.10;;;21.10;99.90;;;;;;5071337;28;20460;-90
2021/06/12 07:18:39;;;;;;;1.40;1.30;;;21.20;99.90;;;;;;5074059;28;20025;-92
2021/06/12 07:21:05;;;;;;;1.52;1.42;;;21.20;99.90;;;;;;5073924;28;20387;-85
2021/06/12 07:23:32;;;;;;;1.58;1.27;;;21.40;99.90;;;;;;5071442;28;20474;-80
2021/06/12 07:25:58;;;;;;;0.82;0.82;;;21.20;99.90;;;;;;5071933;28;20025;-84
2021/06/12 07:28:24;;;;;;;1.17;1.13;;;21.30;99.90;;;;;;5071572;28;20051;-82
2021/06/12 07:30:49;;;;;;;1.45;1.35;;;21.50;99.90;;;;;;5084467;28;20023;-90
2021/06/12 07:33:16;;;;;;;1.63;1.35;;;21.60;99.90;;;;;;5092305;28;20035;-90
2021/06/12 07:35:42;;;;;;;2.45;1.50;;;21.70;99.90;;;;;;5072295;28;20051;-88
2021/06/12 07:38:08;;;;;;;0.70;0.70;;;21.80;99.90;;;;;;5070810;28;20025;-88
2021/06/12 07:40:35;;;;;;;0.85;0.85;;;21.90;99.90;;;;;;5071590;28;20109;-86
2021/06/12 07:43:00;;;;;;;9.80;2.45;;;22.10;99.90;;;;;;5071301;28;20025;-90
2021/06/12 07:45:26;;;;;;;1.00;1.00;;;22.30;99.90;;;;;;5075567;28;20117;-86
2021/06/12 07:47:52;;;;;;;2.95;2.65;;;22.70;99.90;;;;;;5075583;28;20040;-85
2021/06/12 07:50:19;;;;;;;6.38;4.75;;;22.90;99.90;;;;;;5075782;28;20040;-79
2021/06/12 07:52:44;;;;;;;1.45;1.35;;;22.50;99.90;;;;;;5076184;28;20027;-80
2021/06/12 07:55:11;;;;;;;0.93;0.93;;;22.40;99.90;;;;;;5075321;28;20016;-81
2021/06/12 07:57:37;;;;;;;0.70;0.70;;;22.20;99.90;;;;;;5074466;28;20032;-81
2021/06/12 08:00:05;;;;;;;0.90;0.90;;;22.30;99.90;;;;;;5075079;28;20024;-85
2021/06/12 08:02:34;;;;;;;0.70;0.70;;;22.20;99.90;;;;;;5075283;28;20025;-83
2021/06/12 08:04:59;;;;;;;1.30;1.20;;;22.30;99.90;;;;;;5075123;28;20031;-82
2021/06/12 08:07:25;;;;;;;1.83;1.67;;;22.40;99.90;;;;;;5074297;28;20029;-78
2021/06/12 08:09:51;;;;;;;2.65;2.45;;;22.20;97.50;;;;;;5073584;28;20031;-81
2021/06/12 08:12:17;;;;;;;1.38;1.27;;;22.00;97.50;;;;;;5073011;28;20395;-80
2021/06/12 08:14:43;;;;;;;6.75;4.22;;;22.10;97.00;;;;;;5073560;28;20468;-81
2021/06/12 08:17:09;;;;;;;1.65;1.55;;;22.30;97.30;;;;;;5073004;28;20013;-85
2021/06/12 08:19:36;;;;;;;1.10;1.08;;;22.60;97.00;;;;;;5073239;28;20036;-80
2021/06/12 08:22:02;;;;;;;1.63;1.40;;;22.60;96.90;;;;;;5073978;28;20043;-80
2021/06/12 08:24:28;;;;;;;1.42;1.33;;;22.80;97.10;;;;;;5075342;28;20025;-81
2021/06/12 08:26:53;;;;;;;0.82;0.82;;;22.80;96.70;;;;;;5073890;28;20113;-82
2021/06/12 08:29:19;;;;;;;0.75;0.75;;;22.80;96.70;;;;;;5074505;28;20076;-77
2021/06/12 08:31:45;;;;;;;0.80;0.80;;;23.10;96.80;;;;;;5092980;28;20024;-79
2021/06/12 08:34:10;;;;;;;3.83;2.35;;;22.70;95.50;;;;;;5094208;28;20020;-79
2021/06/12 08:36:36;;;;;;;3.20;2.22;;;22.50;95.00;;;;;;5094267;28;20050;-79
2021/06/12 08:39:03;;;;;;;1.40;1.30;;;22.00;94.00;;;;;;5094468;28;20024;-80
2021/06/12 08:41:29;;;;;;;0.95;0.95;;;22.10;94.40;;;;;;5094232;28;20031;-79
2021/06/12 08:43:59;;;;;;;1.25;1.15;;;22.20;92.90;;;;;;5094514;28;20020;-84
2021/06/12 08:46:27;;;;;;;0.70;0.70;;;22.50;94.10;;;;;;5093922;28;20046;-81
2021/06/12 08:48:53;;;;;;;1.23;1.13;;;22.70;91.80;;;;;;5093147;28;20040;-78
2021/06/12 08:51:20;;;;;;;0.80;0.80;;;22.60;91.30;;;;;;5094422;28;20471;-83
2021/06/12 08:53:48;;;;;;;1.80;1.70;;;22.70;91.30;;;;;;5094404;28;20032;-83
2021/06/12 08:56:14;;;;;;;3.53;1.35;;;23.00;92.10;;;;;;5093353;28;20076;-83
2021/06/12 08:58:40;;;;;;;1.40;1.30;;;23.30;91.70;;;;;;5094110;28;20061;-82
2021/06/12 09:01:05;;;;;;;1.58;1.48;;;23.40;90.10;;;;;;5092931;28;20460;-81
2021/06/12 09:03:44;;;;;;;0.60;0.60;;;23.60;90.80;;;;;;5092531;28;20364;-83
2021/06/12 09:06:12;;;;;;;1.10;1.00;;;23.50;90.80;;;;;;5094226;28;20367;-82
2021/06/12 09:08:41;;;;;;;0.60;0.60;;;23.40;90.10;;;;;;5093949;28;20122;-87
2021/06/12 09:11:19;;;;;;;0.75;0.70;;;23.40;88.80;;;;;;5093485;28;20046;-80
2021/06/12 09:13:51;;;;;;;0.93;0.93;;;23.40;89.00;;;;;;5081105;28;20078;-80
2021/06/12 09:16:32;;;;;;;3.35;2.05;;;23.70;89.30;;;;;;5070932;28;20027;-79
2021/06/12 09:19:04;;;;;;;2.58;1.75;;;23.90;88.30;;;;;;5073592;28;20357;-81
2021/06/12 09:21:36;;;;;;;0.80;0.80;;;24.10;88.30;;;;;;5073675;28;20365;-80
2021/06/12 09:24:29;;;;;;;3.58;1.35;;;24.30;86.10;;;;;;5073243;28;20032;-82
2021/06/12 09:26:58;;;;;;;1.13;1.08;;;24.10;85.10;;;;;;5071139;28;20307;-80
2021/06/12 09:29:55;;;;;;;1.10;1.05;;;24.50;85.40;;;;;;5073750;28;20037;-80
2021/06/12 09:32:28;;;;;;;2.58;1.83;;;24.70;84.40;;;;;;5060549;28;20025;-79
2021/06/12 09:35:04;;;;;;;0.95;0.95;;;25.10;85.00;;;;;;5051747;28;20065;-80
2021/06/12 09:37:31;;;;;;;1.00;1.00;;;25.40;83.20;;;;;;5052449;28;20021;-78
2021/06/12 09:40:13;;;;;;;1.67;1.40;;;25.40;82.90;;;;;;5052767;28;20033;-76
2021/06/12 09:42:46;;;;;;;2.75;1.20;;;25.50;81.30;;;;;;5052492;28;20024;-76
2021/06/12 09:45:16;;;;;;;0.70;0.70;;;25.30;77.20;;;;;;5053024;28;20021;-80
2021/06/12 09:47:42;;;;;;;0.80;0.80;;;24.80;79.00;;;;;;5052757;28;20427;-79
2021/06/12 09:50:10;;;;;;;1.08;0.93;;;25.00;80.90;;;;;;5052389;28;20044;-78
2021/06/12 09:52:47;;;;;;;0.68;0.68;;;25.00;79.90;;;;;;5052636;28;20025;-79
2021/06/12 09:55:28;;;;;;;1.38;1.27;;;25.00;79.20;;;;;;5051174;28;20111;-80
2021/06/12 09:57:55;;;;;;;2.60;0.88;;;24.70;77.30;;;;;;5052396;28;20376;-82
2021/06/12 10:00:34;;;;;;;1.70;1.60;;;24.50;79.20;;;;;;5052707;28;20033;-79
2021/06/12 10:03:00;;;;;;;0.80;0.80;;;24.70;80.20;;;;;;5052237;28;20027;-77
2021/06/12 10:05:31;;;;;;;1.85;1.52;;;24.90;81.00;;;;;;5052807;28;20037;-77
2021/06/12 10:07:57;;;;;;;1.65;1.15;;;24.70;80.40;;;;;;5050628;28;20415;-77
2021/06/12 10:10:23;;;;;;;0.50;0.50;;;24.80;80.10;;;;;;5052743;28;20480;-77
2021/06/12 10:12:50;;;;;;;0.68;0.68;;;24.80;80.20;;;;;;5052788;28;20036;-77
2021/06/12 10:15:17;;;;;;;2.08;1.35;;;24.90;80.60;;;;;;5052630;28;20147;-81
2021/06/12 10:17:47;;;;;;;0.50;0.50;;;24.90;79.50;;;;;;5052394;28;20103;-82
2021/06/12 10:20:16;;;;;;;0.70;0.70;;;24.70;79.50;;;;;;5053385;28;20049;-86
2021/06/12 10:22:44;;;;;;;0.65;0.65;;;24.50;80.50;;;;;;5052146;28;20028;-85
2021/06/12 10:25:12;;;;;;;0.63;0.63;;;24.30;80.90;;;;;;5053842;28;20079;-84
2021/06/12 10:27:40;;;;;;;0.70;0.70;;;24.20;81.80;;;;;;5052248;28;20581;-81
2021/06/12 10:30:07;;;;;;;0.93;0.88;;;24.20;81.90;;;;;;5074743;28;20463;-78
2021/06/12 10:32:34;;;;;;;4.70;2.83;;;24.20;81.60;;;;;;5092302;28;20378;-77
2021/06/12 10:35:03;;;;;;;1.70;1.50;;;24.10;82.70;;;;;;5091986;28;20077;-78
2021/06/12 10:37:49;;;;;;;0.85;0.85;;;24.00;83.20;;;;;;5091615;28;20029;-78
2021/06/12 10:40:15;;;;;;;1.90;1.75;;;24.10;87.40;;;;;;5092123;28;20024;-73
2021/06/12 10:42:41;;;;;;;1.13;1.10;;;23.90;90.20;;;;;;5091735;28;20063;-75
2021/06/12 10:45:17;;;;;;;0.70;0.70;;;23.60;93.80;;;;;;5092079;28;20063;-76
2021/06/12 10:47:49;;;;;;;0.55;0.55;;;23.40;95.70;;;;;;5090558;28;20386;-77
2021/06/12 10:50:27;;;;;;;0.75;0.75;;;23.30;98.00;;;;;;5091848;28;20356;-79
2021/06/12 10:52:54;;;;;;;0.70;0.70;;;23.10;99.90;;;;;;5091760;28;20042;-79
2021/06/12 10:55:50;;;;;;;1.10;0.85;;;23.00;99.90;;;;;;5092466;28;20487;-81
2021/06/12 10:58:31;;;;;;;1.00;1.00;;;23.10;99.90;;;;;;5083007;28;20506;-80
2021/06/12 11:01:13;;;;;;;1.08;1.08;;;22.90;99.90;;;;;;5092372;28;20024;-82
2021/06/12 11:03:59;;;;;;;0.60;0.60;;;22.80;99.00;;;;;;5092939;28;20065;-84
2021/06/12 11:06:42;;;;;;;0.60;0.60;;;22.90;98.30;;;;;;5092262;28;20565;-79
2021/06/12 11:09:13;;;;;;;0.82;0.82;;;23.10;97.60;;;;;;5095542;28;20101;-90
2021/06/12 11:11:53;;;;;;;0.60;0.60;;;23.40;99.10;;;;;;5097270;28;20076;-87
2021/06/12 11:14:28;;;;;;;2.50;2.35;;;23.90;96.80;;;;;;5094655;28;20387;-83
2021/06/12 11:17:10;;;;;;;1.65;1.52;;;24.50;98.20;;;;;;5092322;28;20023;-80
2021/06/12 11:19:40;;;;;;;0.85;0.68;;;24.70;96.50;;;;;;5090793;28;20036;-77
2021/06/12 11:22:24;;;;;;;;;;;25.20;95.10;;;;;;5092865;28;20108;-78
2021/06/12 11:25:23;;;;;;;0.75;0.75;;;25.30;95.20;;;;;;5089734;28;19904;-74
2021/06/12 11:27:54;;;;;;;0.73;0.73;;;25.80;94.80;;;;;;5089989;28;20130;-78
2021/06/12 11:30:23;;;;;;;0.60;0.60;;;26.20;93.40;;;;;;5078686;28;20049;-78
2021/06/12 11:33:13;;;;;;;0.40;0.40;;;26.10;87.80;;;;;;5071332;28;20024;-76
2021/06/12 11:35:59;;;;;;;1.08;1.08;;;26.40;84.30;;;;;;5070869;28;20032;-75
2021/06/12 11:38:36;;;;;;;0.77;0.77;;;26.40;82.10;;;;;;5072468;28;20025;-79
2021/06/12 11:41:13;;;;;;;0.95;0.95;;;26.40;81.10;;;;;;5071237;28;20027;-86
2021/06/12 11:43:41;;;;;;;0.40;0.40;;;26.30;80.10;;;;;;5071975;28;20032;-80
2021/06/12 11:46:13;;;;;;;0.88;0.75;;;26.50;79.30;;;;;;5071773;28;20047;-76
2021/06/12 11:48:41;;;;;;;1.52;1.10;;;26.40;76.80;;;;;;5071801;28;20468;-73
2021/06/12 11:51:25;;;;;;;0.40;0.40;;;26.40;73.50;;;;;;5071825;28;20033;-80
2021/06/12 11:54:12;;;;;;;0.70;0.70;;;26.50;72.00;;;;;;5070992;28;20468;-75
2021/06/12 11:56:40;;;;;;;1.67;1.55;;;26.50;72.10;;;;;;5070926;28;20375;-80
2021/06/12 11:59:07;;;;;;;0.63;0.63;;;26.90;72.90;;;;;;5072666;28;20021;-82
2021/06/12 12:01:39;;;;;;;0.45;0.45;;;26.70;69.90;;;;;;5071499;28;20469;-78
2021/06/12 12:04:09;;;;;;;1.02;1.00;;;26.80;72.10;;;;;;5070684;28;20024;-77
2021/06/12 12:06:35;;;;;;;8.90;2.43;;;27.30;71.50;;;;;;5070614;28;20383;-83
2021/06/12 12:09:02;;;;;;;13.30;1.17;;;27.70;70.10;;;;;;5069574;28;20285;-77
2021/06/12 12:11:28;;;;;;;0.70;0.70;;;27.80;68.90;;;;;;5070835;28;20021;-79
2021/06/12 12:14:05;;;;;;;1.02;1.02;;;27.60;67.60;;;;;;5070758;28;20020;-79
2021/06/12 12:16:32;;;;;;;2.25;1.52;;;27.20;67.20;;;;;;5070803;28;20143;-78
2021/06/12 12:19:00;;;;;;;3.80;2.58;;;27.20;66.40;;;;;;5069879;28;20032;-82
2021/06/12 12:21:40;;;;;;;6.35;4.22;;;27.10;65.10;;;;;;5070596;28;20109;-80
2021/06/12 12:24:15;;;;;;;1.77;1.65;;;27.60;65.30;;;;;;5070487;28;20121;-79
2021/06/12 12:26:58;;;;;;;1.08;1.02;;;27.80;65.40;;;;;;5070095;28;20380;-79
2021/06/12 12:29:25;;;;;;;0.60;0.60;;;28.00;64.00;;;;;;5071792;28;20044;-80
2021/06/12 12:32:00;;;;;;;1.05;0.82;;;28.30;64.30;;;;;;5092486;28;20111;-79
2021/06/12 12:34:40;;;;;;;1.75;0.80;;;28.30;64.70;;;;;;5094776;28;20394;-81
2021/06/12 12:37:09;;;;;;;1.15;1.05;;;28.50;64.50;;;;;;5094579;28;20016;-79
2021/06/12 12:39:43;;;;;;;0.40;0.40;;;28.40;63.20;;;;;;5094557;28;20048;-80
2021/06/12 12:42:15;;;;;;;0.90;0.63;;;28.50;64.30;;;;;;5092610;28;20547;-78
2021/06/12 12:44:45;;;;;;;3.13;2.05;;;28.00;63.30;;;;;;5092950;28;20020;-79
2021/06/12 12:47:13;;;;;;;4.43;2.88;;;28.00;64.00;;;;;;5094310;28;20024;-81
2021/06/12 12:49:41;;;;;;;2.88;1.67;;;27.90;62.60;;;;;;5094674;28;20020;-83
2021/06/12 12:52:24;;;;;;;1.02;0.90;;;27.70;61.00;;;;;;5091120;28;20197;-82
2021/06/12 12:54:59;;;;;;;1.75;1.20;;;27.90;62.60;;;;;;5092187;28;20030;-77
2021/06/12 12:57:25;;;;;;;0.77;0.60;;;28.50;61.60;;;;;;5091629;28;20056;-79
2021/06/12 12:59:54;;;;;;;0.32;0.32;;;28.10;61.30;;;;;;5091938;28;20055;-80
2021/06/12 13:02:20;;;;;;;0.35;0.35;;;28.10;62.90;;;;;;5090601;28;20085;-80